sensor_id;sensor_type;location;lat;lon;timestamp;P1;durP1;ratioP1;P2;durP2;ratioP2
3503;SDS011;1766;53.490;10.174;2022-08-01T00:02:01;17.87;;;15.90;;
3503;SDS011;1766;53.490;10.174;2022-08-01T00:04:03;19.13;;;15.73;;
3503;SDS011;1766;53.490;10.174;2022-08-01T00:06:05;19.10;;;16.33;;
3503;SDS011;1766;53.490;10.174;2022-08-01T00:08:07;17.07;;;14.80;;
3503;SDS011;1766;53.490;10.174;2022-08-01T00:10:10;20.53;;;15.70;;
3503;SDS011;1766;53.490;10.174;2022-08-01T00:12:14;19.73;;;16.03;;
3503;SDS011;1766;53.490;10.174;2022-08-01T00:14:16;19.87;;;15.70;;
3503;SDS011;1766;53.490;10.174;2022-08-01T00:16:17;18.05;;;16.13;;
3503;SDS011;1766;53.490;10.174;2022-08-01T00:18:22;25.42;;;16.40;;
3503;SDS011;1766;53.490;10.174;2022-08-01T00:20:33;22.13;;;16.43;;
3503;SDS011;1766;53.490;10.174;2022-08-01T00:22:35;21.07;;;16.33;;
3503;SDS011;1766;53.490;10.174;2022-08-01T00:24:37;20.30;;;16.07;;
3503;SDS011;1766;53.490;10.174;2022-08-01T00:26:40;19.67;;;16.10;;
3503;SDS011;1766;53.490;10.174;2022-08-01T00:28:41;21.33;;;16.80;;
3503;SDS011;1766;53.490;10.174;2022-08-01T00:30:43;20.87;;;16.80;;
3503;SDS011;1766;53.490;10.174;2022-08-01T00:32:45;20.13;;;17.87;;
3503;SDS011;1766;53.490;10.174;2022-08-01T00:34:47;24.33;;;19.27;;
3503;SDS011;1766;53.490;10.174;2022-08-01T00:36:49;25.67;;;18.13;;
3503;SDS011;1766;53.490;10.174;2022-08-01T00:38:51;25.07;;;16.67;;
3503;SDS011;1766;53.490;10.174;2022-08-01T00:40:53;20.77;;;14.37;;
3503;SDS011;1766;53.490;10.174;2022-08-01T00:42:56;17.83;;;15.30;;
3503;SDS011;1766;53.490;10.174;2022-08-01T00:44:58;16.77;;;13.40;;
3503;SDS011;1766;53.490;10.174;2022-08-01T00:47:00;17.10;;;13.33;;
3503;SDS011;1766;53.490;10.174;2022-08-01T00:49:02;16.47;;;14.23;;
3503;SDS011;1766;53.490;10.174;2022-08-01T00:51:04;17.27;;;13.70;;
3503;SDS011;1766;53.490;10.174;2022-08-01T00:53:06;13.77;;;12.37;;
3503;SDS011;1766;53.490;10.174;2022-08-01T00:55:09;15.30;;;12.40;;
3503;SDS011;1766;53.490;10.174;2022-08-01T00:57:13;14.33;;;12.03;;
3503;SDS011;1766;53.490;10.174;2022-08-01T00:59:17;13.80;;;11.43;;
3503;SDS011;1766;53.490;10.174;2022-08-01T01:01:21;13.83;;;12.03;;
3503;SDS011;1766;53.490;10.174;2022-08-01T01:03:24;16.80;;;12.50;;
3503;SDS011;1766;53.490;10.174;2022-08-01T01:05:26;16.08;;;12.77;;
3503;SDS011;1766;53.490;10.174;2022-08-01T01:07:29;18.23;;;14.33;;
3503;SDS011;1766;53.490;10.174;2022-08-01T01:09:38;18.17;;;14.70;;
3503;SDS011;1766;53.490;10.174;2022-08-01T01:11:48;17.83;;;14.57;;
3503;SDS011;1766;53.490;10.174;2022-08-01T01:14:01;16.37;;;14.17;;
3503;SDS011;1766;53.490;10.174;2022-08-01T01:16:11;18.37;;;14.10;;
3503;SDS011;1766;53.490;10.174;2022-08-01T01:18:17;17.97;;;14.47;;
3503;SDS011;1766;53.490;10.174;2022-08-01T01:20:26;19.10;;;14.43;;
3503;SDS011;1766;53.490;10.174;2022-08-01T01:22:38;16.90;;;15.00;;
3503;SDS011;1766;53.490;10.174;2022-08-01T01:24:58;17.27;;;13.70;;
3503;SDS011;1766;53.490;10.174;2022-08-01T01:27:15;17.57;;;13.77;;
3503;SDS011;1766;53.490;10.174;2022-08-01T01:29:32;15.97;;;13.70;;
3503;SDS011;1766;53.490;10.174;2022-08-01T01:31:43;14.60;;;13.07;;
3503;SDS011;1766;53.490;10.174;2022-08-01T01:33:49;18.00;;;13.43;;
3503;SDS011;1766;53.490;10.174;2022-08-01T01:36:04;15.67;;;12.97;;
3503;SDS011;1766;53.490;10.174;2022-08-01T01:38:10;19.17;;;13.17;;
3503;SDS011;1766;53.490;10.174;2022-08-01T01:40:18;17.90;;;14.13;;
3503;SDS011;1766;53.490;10.174;2022-08-01T01:42:23;15.57;;;13.83;;
3503;SDS011;1766;53.490;10.174;2022-08-01T01:44:26;19.17;;;14.63;;
3503;SDS011;1766;53.490;10.174;2022-08-01T01:46:31;15.73;;;14.07;;
3503;SDS011;1766;53.490;10.174;2022-08-01T01:48:34;14.60;;;12.87;;
3503;SDS011;1766;53.490;10.174;2022-08-01T01:50:37;18.37;;;13.47;;
3503;SDS011;1766;53.490;10.174;2022-08-01T01:52:40;15.80;;;13.20;;
3503;SDS011;1766;53.490;10.174;2022-08-01T01:54:46;17.73;;;12.97;;
3503;SDS011;1766;53.490;10.174;2022-08-01T01:56:50;15.13;;;12.37;;
3503;SDS011;1766;53.490;10.174;2022-08-01T01:58:59;14.37;;;12.80;;
3503;SDS011;1766;53.490;10.174;2022-08-01T02:01:03;18.13;;;11.90;;
3503;SDS011;1766;53.490;10.174;2022-08-01T02:03:08;19.80;;;12.60;;
3503;SDS011;1766;53.490;10.174;2022-08-01T02:05:12;16.37;;;11.07;;
3503;SDS011;1766;53.490;10.174;2022-08-01T02:07:16;17.90;;;12.43;;
3503;SDS011;1766;53.490;10.174;2022-08-01T02:09:23;18.93;;;12.00;;
3503;SDS011;1766;53.490;10.174;2022-08-01T02:11:28;13.43;;;11.77;;
3503;SDS011;1766;53.490;10.174;2022-08-01T02:13:30;19.40;;;12.27;;
3503;SDS011;1766;53.490;10.174;2022-08-01T02:15:33;16.00;;;11.27;;
3503;SDS011;1766;53.490;10.174;2022-08-01T02:17:39;14.40;;;11.67;;
3503;SDS011;1766;53.490;10.174;2022-08-01T02:19:46;16.30;;;11.70;;
3503;SDS011;1766;53.490;10.174;2022-08-01T02:21:51;16.67;;;11.63;;
3503;SDS011;1766;53.490;10.174;2022-08-01T02:23:59;14.60;;;11.87;;
3503;SDS011;1766;53.490;10.174;2022-08-01T02:26:13;18.40;;;11.60;;
3503;SDS011;1766;53.490;10.174;2022-08-01T02:28:19;14.60;;;11.37;;
3503;SDS011;1766;53.490;10.174;2022-08-01T02:30:29;13.77;;;11.13;;
3503;SDS011;1766;53.490;10.174;2022-08-01T02:32:36;14.73;;;10.30;;
3503;SDS011;1766;53.490;10.174;2022-08-01T02:34:42;12.97;;;9.83;;
3503;SDS011;1766;53.490;10.174;2022-08-01T02:36:50;15.23;;;9.30;;
3503;SDS011;1766;53.490;10.174;2022-08-01T02:38:54;12.93;;;9.10;;
3503;SDS011;1766;53.490;10.174;2022-08-01T02:40:59;14.43;;;9.50;;
3503;SDS011;1766;53.490;10.174;2022-08-01T02:43:09;14.63;;;9.00;;
3503;SDS011;1766;53.490;10.174;2022-08-01T02:45:13;12.50;;;8.07;;
3503;SDS011;1766;53.490;10.174;2022-08-01T02:47:16;14.50;;;8.80;;
3503;SDS011;1766;53.490;10.174;2022-08-01T02:49:21;15.50;;;8.33;;
3503;SDS011;1766;53.490;10.174;2022-08-01T02:51:27;13.83;;;8.83;;
3503;SDS011;1766;53.490;10.174;2022-08-01T02:53:32;14.30;;;9.10;;
3503;SDS011;1766;53.490;10.174;2022-08-01T02:55:38;13.10;;;8.37;;
3503;SDS011;1766;53.490;10.174;2022-08-01T02:57:42;13.53;;;9.50;;
3503;SDS011;1766;53.490;10.174;2022-08-01T02:59:47;14.40;;;9.43;;
3503;SDS011;1766;53.490;10.174;2022-08-01T03:01:52;13.90;;;9.23;;
3503;SDS011;1766;53.490;10.174;2022-08-01T03:03:56;12.20;;;8.30;;
3503;SDS011;1766;53.490;10.174;2022-08-01T03:06:00;12.50;;;9.17;;
3503;SDS011;1766;53.490;10.174;2022-08-01T03:08:05;15.20;;;9.53;;
3503;SDS011;1766;53.490;10.174;2022-08-01T03:10:08;13.10;;;9.93;;
3503;SDS011;1766;53.490;10.174;2022-08-01T03:12:13;14.50;;;10.13;;
3503;SDS011;1766;53.490;10.174;2022-08-01T03:14:18;13.03;;;9.40;;
3503;SDS011;1766;53.490;10.174;2022-08-01T03:16:23;12.70;;;8.70;;
3503;SDS011;1766;53.490;10.174;2022-08-01T03:18:27;12.23;;;8.73;;
3503;SDS011;1766;53.490;10.174;2022-08-01T03:20:30;12.57;;;8.57;;
3503;SDS011;1766;53.490;10.174;2022-08-01T03:22:34;10.47;;;8.70;;
3503;SDS011;1766;53.490;10.174;2022-08-01T03:24:39;13.00;;;8.87;;
3503;SDS011;1766;53.490;10.174;2022-08-01T03:26:42;15.43;;;10.20;;
3503;SDS011;1766;53.490;10.174;2022-08-01T03:28:46;12.13;;;8.30;;
3503;SDS011;1766;53.490;10.174;2022-08-01T03:30:49;10.67;;;9.00;;
3503;SDS011;1766;53.490;10.174;2022-08-01T03:32:52;12.70;;;8.37;;
3503;SDS011;1766;53.490;10.174;2022-08-01T03:34:54;14.23;;;8.50;;
3503;SDS011;1766;53.490;10.174;2022-08-01T03:36:56;9.00;;;8.07;;
3503;SDS011;1766;53.490;10.174;2022-08-01T03:39:04;13.73;;;8.23;;
3503;SDS011;1766;53.490;10.174;2022-08-01T03:41:11;10.47;;;8.13;;
3503;SDS011;1766;53.490;10.174;2022-08-01T03:43:18;9.00;;;8.10;;
3503;SDS011;1766;53.490;10.174;2022-08-01T03:45:25;11.83;;;8.70;;
3503;SDS011;1766;53.490;10.174;2022-08-01T03:47:31;11.07;;;9.43;;
3503;SDS011;1766;53.490;10.174;2022-08-01T03:49:40;14.13;;;8.70;;
3503;SDS011;1766;53.490;10.174;2022-08-01T03:51:44;11.17;;;7.43;;
3503;SDS011;1766;53.490;10.174;2022-08-01T03:53:49;8.53;;;7.73;;
3503;SDS011;1766;53.490;10.174;2022-08-01T03:55:54;9.03;;;7.73;;
3503;SDS011;1766;53.490;10.174;2022-08-01T03:57:58;8.57;;;7.43;;
3503;SDS011;1766;53.490;10.174;2022-08-01T04:00:02;10.30;;;7.90;;
3503;SDS011;1766;53.490;10.174;2022-08-01T04:02:07;7.77;;;7.03;;
3503;SDS011;1766;53.490;10.174;2022-08-01T04:04:09;7.73;;;6.50;;
3503;SDS011;1766;53.490;10.174;2022-08-01T04:06:11;11.43;;;6.93;;
3503;SDS011;1766;53.490;10.174;2022-08-01T04:08:13;7.77;;;6.90;;
3503;SDS011;1766;53.490;10.174;2022-08-01T04:10:16;9.17;;;6.83;;
3503;SDS011;1766;53.490;10.174;2022-08-01T04:12:18;9.60;;;6.57;;
3503;SDS011;1766;53.490;10.174;2022-08-01T04:14:21;9.43;;;6.50;;
3503;SDS011;1766;53.490;10.174;2022-08-01T04:16:24;7.33;;;6.30;;
3503;SDS011;1766;53.490;10.174;2022-08-01T04:18:26;6.53;;;5.83;;
3503;SDS011;1766;53.490;10.174;2022-08-01T04:20:28;7.27;;;6.30;;
3503;SDS011;1766;53.490;10.174;2022-08-01T04:22:30;5.87;;;5.30;;
3503;SDS011;1766;53.490;10.174;2022-08-01T04:24:32;7.23;;;4.83;;
3503;SDS011;1766;53.490;10.174;2022-08-01T04:26:36;4.97;;;4.30;;
3503;SDS011;1766;53.490;10.174;2022-08-01T04:28:40;7.93;;;5.27;;
3503;SDS011;1766;53.490;10.174;2022-08-01T04:30:46;6.83;;;4.50;;
3503;SDS011;1766;53.490;10.174;2022-08-01T04:32:52;7.10;;;4.93;;
3503;SDS011;1766;53.490;10.174;2022-08-01T04:34:56;4.63;;;3.70;;
3503;SDS011;1766;53.490;10.174;2022-08-01T04:37:00;7.57;;;3.80;;
3503;SDS011;1766;53.490;10.174;2022-08-01T04:39:03;3.50;;;3.20;;
3503;SDS011;1766;53.490;10.174;2022-08-01T04:41:06;6.00;;;3.53;;
3503;SDS011;1766;53.490;10.174;2022-08-01T04:43:14;5.63;;;3.67;;
3503;SDS011;1766;53.490;10.174;2022-08-01T04:45:16;7.77;;;3.17;;
3503;SDS011;1766;53.490;10.174;2022-08-01T04:47:22;5.70;;;4.43;;
3503;SDS011;1766;53.490;10.174;2022-08-01T04:49:24;4.47;;;3.90;;
3503;SDS011;1766;53.490;10.174;2022-08-01T04:51:26;5.10;;;3.50;;
3503;SDS011;1766;53.490;10.174;2022-08-01T04:53:30;4.80;;;3.90;;
3503;SDS011;1766;53.490;10.174;2022-08-01T04:55:33;4.97;;;2.70;;
3503;SDS011;1766;53.490;10.174;2022-08-01T04:57:37;5.87;;;3.60;;
3503;SDS011;1766;53.490;10.174;2022-08-01T04:59:45;3.87;;;2.43;;
3503;SDS011;1766;53.490;10.174;2022-08-01T05:01:49;3.33;;;2.80;;
3503;SDS011;1766;53.490;10.174;2022-08-01T05:03:52;3.77;;;2.47;;
3503;SDS011;1766;53.490;10.174;2022-08-01T05:05:54;5.67;;;2.20;;
3503;SDS011;1766;53.490;10.174;2022-08-01T05:07:56;3.40;;;2.53;;
3503;SDS011;1766;53.490;10.174;2022-08-01T05:09:58;3.23;;;1.87;;
3503;SDS011;1766;53.490;10.174;2022-08-01T05:12:01;3.87;;;2.17;;
3503;SDS011;1766;53.490;10.174;2022-08-01T05:14:05;2.40;;;2.00;;
3503;SDS011;1766;53.490;10.174;2022-08-01T05:16:07;4.00;;;1.97;;
3503;SDS011;1766;53.490;10.174;2022-08-01T05:18:09;6.27;;;2.27;;
3503;SDS011;1766;53.490;10.174;2022-08-01T05:20:12;2.07;;;1.93;;
3503;SDS011;1766;53.490;10.174;2022-08-01T05:22:14;2.20;;;2.10;;
3503;SDS011;1766;53.490;10.174;2022-08-01T05:24:16;8.10;;;6.63;;
3503;SDS011;1766;53.490;10.174;2022-08-01T05:26:18;5.83;;;3.20;;
3503;SDS011;1766;53.490;10.174;2022-08-01T05:28:20;8.23;;;2.23;;
3503;SDS011;1766;53.490;10.174;2022-08-01T05:30:22;2.93;;;2.00;;
3503;SDS011;1766;53.490;10.174;2022-08-01T05:32:23;4.07;;;1.90;;
3503;SDS011;1766;53.490;10.174;2022-08-01T05:34:25;2.50;;;1.93;;
3503;SDS011;1766;53.490;10.174;2022-08-01T05:36:29;3.67;;;2.10;;
3503;SDS011;1766;53.490;10.174;2022-08-01T05:38:31;2.30;;;2.10;;
3503;SDS011;1766;53.490;10.174;2022-08-01T05:40:33;1.83;;;1.73;;
3503;SDS011;1766;53.490;10.174;2022-08-01T05:42:34;4.30;;;1.20;;
3503;SDS011;1766;53.490;10.174;2022-08-01T05:44:36;3.30;;;1.47;;
3503;SDS011;1766;53.490;10.174;2022-08-01T05:46:38;1.80;;;1.23;;
3503;SDS011;1766;53.490;10.174;2022-08-01T05:48:40;1.97;;;1.13;;
3503;SDS011;1766;53.490;10.174;2022-08-01T05:50:42;3.43;;;1.50;;
3503;SDS011;1766;53.490;10.174;2022-08-01T05:52:45;18.30;;;14.80;;
3503;SDS011;1766;53.490;10.174;2022-08-01T05:54:47;15.43;;;10.50;;
3503;SDS011;1766;53.490;10.174;2022-08-01T05:56:49;4.57;;;2.20;;
3503;SDS011;1766;53.490;10.174;2022-08-01T05:58:51;2.77;;;1.20;;
3503;SDS011;1766;53.490;10.174;2022-08-01T06:00:54;2.20;;;1.60;;
3503;SDS011;1766;53.490;10.174;2022-08-01T06:02:56;1.60;;;1.50;;
3503;SDS011;1766;53.490;10.174;2022-08-01T06:04:57;2.87;;;1.40;;
3503;SDS011;1766;53.490;10.174;2022-08-01T06:06:59;4.13;;;2.77;;
3503;SDS011;1766;53.490;10.174;2022-08-01T06:09:02;3.17;;;1.57;;
3503;SDS011;1766;53.490;10.174;2022-08-01T06:11:04;3.73;;;3.23;;
3503;SDS011;1766;53.490;10.174;2022-08-01T06:13:07;2.50;;;1.20;;
3503;SDS011;1766;53.490;10.174;2022-08-01T06:15:08;2.87;;;2.00;;
3503;SDS011;1766;53.490;10.174;2022-08-01T06:17:11;1.70;;;1.20;;
3503;SDS011;1766;53.490;10.174;2022-08-01T06:19:13;3.77;;;1.33;;
3503;SDS011;1766;53.490;10.174;2022-08-01T06:21:15;5.20;;;1.50;;
3503;SDS011;1766;53.490;10.174;2022-08-01T06:23:17;2.50;;;1.77;;
3503;SDS011;1766;53.490;10.174;2022-08-01T06:25:20;2.63;;;1.70;;
3503;SDS011;1766;53.490;10.174;2022-08-01T06:27:22;2.03;;;1.60;;
3503;SDS011;1766;53.490;10.174;2022-08-01T06:29:25;4.63;;;2.00;;
3503;SDS011;1766;53.490;10.174;2022-08-01T06:31:26;1.87;;;1.70;;
3503;SDS011;1766;53.490;10.174;2022-08-01T06:33:28;4.90;;;2.07;;
3503;SDS011;1766;53.490;10.174;2022-08-01T06:35:30;2.00;;;1.90;;
3503;SDS011;1766;53.490;10.174;2022-08-01T06:37:32;9.50;;;7.50;;
3503;SDS011;1766;53.490;10.174;2022-08-01T06:39:34;5.38;;;4.88;;
3503;SDS011;1766;53.490;10.174;2022-08-01T06:41:39;5.25;;;2.38;;
3503;SDS011;1766;53.490;10.174;2022-08-01T06:43:47;6.23;;;3.03;;
3503;SDS011;1766;53.490;10.174;2022-08-01T06:45:50;3.63;;;3.20;;
3503;SDS011;1766;53.490;10.174;2022-08-01T06:47:52;3.50;;;3.23;;
3503;SDS011;1766;53.490;10.174;2022-08-01T06:49:54;6.67;;;3.30;;
3503;SDS011;1766;53.490;10.174;2022-08-01T06:51:56;4.40;;;3.00;;
3503;SDS011;1766;53.490;10.174;2022-08-01T06:53:58;3.97;;;2.50;;
3503;SDS011;1766;53.490;10.174;2022-08-01T06:56:00;3.23;;;2.60;;
3503;SDS011;1766;53.490;10.174;2022-08-01T06:58:03;6.50;;;2.50;;
3503;SDS011;1766;53.490;10.174;2022-08-01T07:00:05;18.45;;;12.88;;
3503;SDS011;1766;53.490;10.174;2022-08-01T07:02:10;6.35;;;4.40;;
3503;SDS011;1766;53.490;10.174;2022-08-01T07:04:12;4.70;;;4.07;;
3503;SDS011;1766;53.490;10.174;2022-08-01T07:06:14;8.90;;;2.50;;
3503;SDS011;1766;53.490;10.174;2022-08-01T07:08:16;5.53;;;3.10;;
3503;SDS011;1766;53.490;10.174;2022-08-01T07:10:18;3.58;;;2.60;;
3503;SDS011;1766;53.490;10.174;2022-08-01T07:12:20;5.57;;;3.23;;
3503;SDS011;1766;53.490;10.174;2022-08-01T07:14:23;4.13;;;2.97;;
3503;SDS011;1766;53.490;10.174;2022-08-01T07:16:25;4.33;;;3.17;;
3503;SDS011;1766;53.490;10.174;2022-08-01T07:18:27;7.50;;;3.50;;
3503;SDS011;1766;53.490;10.174;2022-08-01T07:20:29;3.65;;;3.17;;
3503;SDS011;1766;53.490;10.174;2022-08-01T07:22:31;4.90;;;3.15;;
3503;SDS011;1766;53.490;10.174;2022-08-01T07:24:32;5.82;;;3.30;;
3503;SDS011;1766;53.490;10.174;2022-08-01T07:26:34;8.10;;;2.92;;
3503;SDS011;1766;53.490;10.174;2022-08-01T07:28:36;6.45;;;3.28;;
3503;SDS011;1766;53.490;10.174;2022-08-01T07:30:39;3.97;;;3.30;;
3503;SDS011;1766;53.490;10.174;2022-08-01T07:32:42;9.07;;;6.67;;
3503;SDS011;1766;53.490;10.174;2022-08-01T07:34:43;18.80;;;11.93;;
3503;SDS011;1766;53.490;10.174;2022-08-01T07:36:45;9.48;;;3.60;;
3503;SDS011;1766;53.490;10.174;2022-08-01T07:38:47;10.07;;;3.67;;
3503;SDS011;1766;53.490;10.174;2022-08-01T07:40:49;5.13;;;2.92;;
3503;SDS011;1766;53.490;10.174;2022-08-01T07:42:51;9.25;;;2.95;;
3503;SDS011;1766;53.490;10.174;2022-08-01T07:44:53;2.90;;;2.63;;
3503;SDS011;1766;53.490;10.174;2022-08-01T07:46:56;8.93;;;2.83;;
3503;SDS011;1766;53.490;10.174;2022-08-01T07:48:58;6.22;;;3.30;;
3503;SDS011;1766;53.490;10.174;2022-08-01T07:51:00;6.30;;;3.00;;
3503;SDS011;1766;53.490;10.174;2022-08-01T07:53:02;6.70;;;3.50;;
3503;SDS011;1766;53.490;10.174;2022-08-01T07:55:04;5.80;;;2.83;;
3503;SDS011;1766;53.490;10.174;2022-08-01T07:57:07;5.57;;;3.40;;
3503;SDS011;1766;53.490;10.174;2022-08-01T07:59:09;7.05;;;4.88;;
3503;SDS011;1766;53.490;10.174;2022-08-01T08:01:11;8.40;;;3.63;;
3503;SDS011;1766;53.490;10.174;2022-08-01T08:03:14;7.70;;;4.07;;
3503;SDS011;1766;53.490;10.174;2022-08-01T08:05:16;5.68;;;3.60;;
3503;SDS011;1766;53.490;10.174;2022-08-01T08:07:19;6.30;;;2.80;;
3503;SDS011;1766;53.490;10.174;2022-08-01T08:09:21;4.97;;;2.90;;
3503;SDS011;1766;53.490;10.174;2022-08-01T08:11:23;7.65;;;3.17;;
3503;SDS011;1766;53.490;10.174;2022-08-01T08:13:25;8.23;;;3.90;;
3503;SDS011;1766;53.490;10.174;2022-08-01T08:15:27;8.98;;;3.45;;
3503;SDS011;1766;53.490;10.174;2022-08-01T08:17:29;48.25;;;31.35;;
3503;SDS011;1766;53.490;10.174;2022-08-01T08:19:33;50.08;;;35.63;;
3503;SDS011;1766;53.490;10.174;2022-08-01T08:21:37;11.50;;;4.60;;
3503;SDS011;1766;53.490;10.174;2022-08-01T08:23:39;14.53;;;4.27;;
3503;SDS011;1766;53.490;10.174;2022-08-01T08:25:55;13.48;;;4.60;;
3503;SDS011;1766;53.490;10.174;2022-08-01T08:27:57;11.88;;;3.13;;
3503;SDS011;1766;53.490;10.174;2022-08-01T08:29:59;9.60;;;3.33;;
3503;SDS011;1766;53.490;10.174;2022-08-01T08:32:00;10.85;;;3.20;;
3503;SDS011;1766;53.490;10.174;2022-08-01T08:34:02;7.97;;;3.05;;
3503;SDS011;1766;53.490;10.174;2022-08-01T08:36:06;10.35;;;2.97;;
3503;SDS011;1766;53.490;10.174;2022-08-01T08:38:08;8.10;;;2.42;;
3503;SDS011;1766;53.490;10.174;2022-08-01T08:40:10;10.82;;;2.63;;
3503;SDS011;1766;53.490;10.174;2022-08-01T08:42:12;10.48;;;2.03;;
3503;SDS011;1766;53.490;10.174;2022-08-01T08:44:14;9.05;;;2.05;;
3503;SDS011;1766;53.490;10.174;2022-08-01T08:46:17;5.60;;;2.10;;
3503;SDS011;1766;53.490;10.174;2022-08-01T08:48:21;7.75;;;2.17;;
3503;SDS011;1766;53.490;10.174;2022-08-01T08:50:24;8.80;;;1.90;;
3503;SDS011;1766;53.490;10.174;2022-08-01T08:52:28;5.78;;;1.70;;
3503;SDS011;1766;53.490;10.174;2022-08-01T08:54:31;5.97;;;1.63;;
3503;SDS011;1766;53.490;10.174;2022-08-01T08:56:34;8.00;;;1.35;;
3503;SDS011;1766;53.490;10.174;2022-08-01T08:58:36;4.63;;;1.30;;
3503;SDS011;1766;53.490;10.174;2022-08-01T09:00:39;7.07;;;1.45;;
3503;SDS011;1766;53.490;10.174;2022-08-01T09:02:42;4.72;;;1.30;;
3503;SDS011;1766;53.490;10.174;2022-08-01T09:04:46;4.00;;;1.25;;
3503;SDS011;1766;53.490;10.174;2022-08-01T09:06:49;5.20;;;1.25;;
3503;SDS011;1766;53.490;10.174;2022-08-01T09:08:53;31.15;;;3.33;;
3503;SDS011;1766;53.490;10.174;2022-08-01T09:10:55;5.18;;;1.13;;
3503;SDS011;1766;53.490;10.174;2022-08-01T09:13:05;4.50;;;1.88;;
3503;SDS011;1766;53.490;10.174;2022-08-01T09:15:10;6.10;;;1.33;;
3503;SDS011;1766;53.490;10.174;2022-08-01T09:17:12;4.28;;;1.55;;
3503;SDS011;1766;53.490;10.174;2022-08-01T09:19:17;4.95;;;1.40;;
3503;SDS011;1766;53.490;10.174;2022-08-01T09:21:21;4.10;;;1.50;;
3503;SDS011;1766;53.490;10.174;2022-08-01T09:23:32;9.40;;;2.13;;
3503;SDS011;1766;53.490;10.174;2022-08-01T09:28:04;3.55;;;1.38;;
3503;SDS011;1766;53.490;10.174;2022-08-01T09:30:08;4.38;;;1.30;;
3503;SDS011;1766;53.490;10.174;2022-08-01T09:32:12;5.50;;;2.00;;
3503;SDS011;1766;53.490;10.174;2022-08-01T09:34:14;5.22;;;1.73;;
3503;SDS011;1766;53.490;10.174;2022-08-01T09:36:16;3.80;;;1.45;;
3503;SDS011;1766;53.490;10.174;2022-08-01T09:38:19;9.40;;;2.83;;
3503;SDS011;1766;53.490;10.174;2022-08-01T09:40:23;7.05;;;1.70;;
3503;SDS011;1766;53.490;10.174;2022-08-01T09:42:25;6.35;;;1.88;;
3503;SDS011;1766;53.490;10.174;2022-08-01T09:44:37;4.63;;;2.10;;
3503;SDS011;1766;53.490;10.174;2022-08-01T09:46:51;12.48;;;6.45;;
3503;SDS011;1766;53.490;10.174;2022-08-01T09:48:55;19.50;;;7.85;;
3503;SDS011;1766;53.490;10.174;2022-08-01T09:50:58;9.15;;;2.25;;
3503;SDS011;1766;53.490;10.174;2022-08-01T09:53:01;7.25;;;1.73;;
3503;SDS011;1766;53.490;10.174;2022-08-01T09:55:03;9.57;;;2.38;;
3503;SDS011;1766;53.490;10.174;2022-08-01T09:57:08;7.47;;;2.05;;
3503;SDS011;1766;53.490;10.174;2022-08-01T09:59:12;8.00;;;1.42;;
3503;SDS011;1766;53.490;10.174;2022-08-01T10:01:15;4.53;;;1.70;;
3503;SDS011;1766;53.490;10.174;2022-08-01T10:03:18;10.88;;;2.35;;
3503;SDS011;1766;53.490;10.174;2022-08-01T10:05:29;7.95;;;2.10;;
3503;SDS011;1766;53.490;10.174;2022-08-01T10:07:32;9.73;;;1.67;;
3503;SDS011;1766;53.490;10.174;2022-08-01T10:09:35;6.82;;;1.77;;
3503;SDS011;1766;53.490;10.174;2022-08-01T10:11:38;9.48;;;2.00;;
3503;SDS011;1766;53.490;10.174;2022-08-01T10:13:43;8.77;;;1.80;;
3503;SDS011;1766;53.490;10.174;2022-08-01T10:15:45;7.47;;;1.60;;
3503;SDS011;1766;53.490;10.174;2022-08-01T10:17:51;5.05;;;1.73;;
3503;SDS011;1766;53.490;10.174;2022-08-01T10:19:55;10.38;;;2.05;;
3503;SDS011;1766;53.490;10.174;2022-08-01T10:21:58;6.68;;;1.88;;
3503;SDS011;1766;53.490;10.174;2022-08-01T10:24:02;20.77;;;2.60;;
3503;SDS011;1766;53.490;10.174;2022-08-01T10:26:07;6.50;;;1.75;;
3503;SDS011;1766;53.490;10.174;2022-08-01T10:28:13;10.50;;;2.38;;
3503;SDS011;1766;53.490;10.174;2022-08-01T10:30:17;18.27;;;8.68;;
3503;SDS011;1766;53.490;10.174;2022-08-01T10:32:19;10.27;;;4.72;;
3503;SDS011;1766;53.490;10.174;2022-08-01T10:34:23;9.25;;;3.00;;
3503;SDS011;1766;53.490;10.174;2022-08-01T10:36:25;8.73;;;2.75;;
3503;SDS011;1766;53.490;10.174;2022-08-01T10:38:28;8.05;;;2.42;;
3503;SDS011;1766;53.490;10.174;2022-08-01T10:40:30;12.13;;;2.33;;
3503;SDS011;1766;53.490;10.174;2022-08-01T10:42:33;7.10;;;2.20;;
3503;SDS011;1766;53.490;10.174;2022-08-01T10:44:35;8.23;;;2.22;;
3503;SDS011;1766;53.490;10.174;2022-08-01T10:46:39;9.27;;;2.35;;
3503;SDS011;1766;53.490;10.174;2022-08-01T10:48:50;6.80;;;2.38;;
3503;SDS011;1766;53.490;10.174;2022-08-01T10:51:00;8.35;;;2.38;;
3503;SDS011;1766;53.490;10.174;2022-08-01T10:53:07;12.32;;;3.10;;
3503;SDS011;1766;53.490;10.174;2022-08-01T10:55:13;13.32;;;2.30;;
3503;SDS011;1766;53.490;10.174;2022-08-01T10:57:14;8.88;;;3.08;;
3503;SDS011;1766;53.490;10.174;2022-08-01T10:59:19;5.35;;;1.98;;
3503;SDS011;1766;53.490;10.174;2022-08-01T11:01:24;6.40;;;2.30;;
3503;SDS011;1766;53.490;10.174;2022-08-01T11:03:32;5.35;;;1.63;;
3503;SDS011;1766;53.490;10.174;2022-08-01T11:05:36;8.02;;;2.05;;
3503;SDS011;1766;53.490;10.174;2022-08-01T11:07:43;2.63;;;1.45;;
3503;SDS011;1766;53.490;10.174;2022-08-01T11:09:58;6.47;;;1.98;;
3503;SDS011;1766;53.490;10.174;2022-08-01T11:12:07;8.02;;;1.77;;
3503;SDS011;1766;53.490;10.174;2022-08-01T11:14:11;8.32;;;2.70;;
3503;SDS011;1766;53.490;10.174;2022-08-01T11:16:24;7.78;;;3.53;;
3503;SDS011;1766;53.490;10.174;2022-08-01T11:18:29;7.35;;;1.70;;
3503;SDS011;1766;53.490;10.174;2022-08-01T11:20:33;8.27;;;2.13;;
3503;SDS011;1766;53.490;10.174;2022-08-01T11:25:18;5.72;;;1.67;;
3503;SDS011;1766;53.490;10.174;2022-08-01T11:27:21;6.40;;;2.47;;
3503;SDS011;1766;53.490;10.174;2022-08-01T11:29:26;6.22;;;1.45;;
3503;SDS011;1766;53.490;10.174;2022-08-01T11:31:28;10.80;;;2.80;;
3503;SDS011;1766;53.490;10.174;2022-08-01T11:33:47;5.38;;;1.58;;
3503;SDS011;1766;53.490;10.174;2022-08-01T11:38:24;4.72;;;1.42;;
3503;SDS011;1766;53.490;10.174;2022-08-01T11:40:28;5.97;;;1.35;;
3503;SDS011;1766;53.490;10.174;2022-08-01T11:42:30;4.88;;;1.20;;
3503;SDS011;1766;53.490;10.174;2022-08-01T11:44:33;4.93;;;2.35;;
3503;SDS011;1766;53.490;10.174;2022-08-01T11:46:52;7.47;;;1.92;;
3503;SDS011;1766;53.490;10.174;2022-08-01T11:51:32;6.53;;;1.50;;
3503;SDS011;1766;53.490;10.174;2022-08-01T11:53:35;5.72;;;1.20;;
3503;SDS011;1766;53.490;10.174;2022-08-01T11:55:48;3.38;;;1.27;;
3503;SDS011;1766;53.490;10.174;2022-08-01T11:57:51;11.32;;;5.93;;
3503;SDS011;1766;53.490;10.174;2022-08-01T12:00:03;6.97;;;1.60;;
3503;SDS011;1766;53.490;10.174;2022-08-01T12:02:15;5.47;;;1.50;;
3503;SDS011;1766;53.490;10.174;2022-08-01T12:04:20;2.95;;;0.90;;
3503;SDS011;1766;53.490;10.174;2022-08-01T12:06:26;7.95;;;1.50;;
3503;SDS011;1766;53.490;10.174;2022-08-01T12:08:29;7.93;;;1.52;;
3503;SDS011;1766;53.490;10.174;2022-08-01T12:10:36;4.50;;;1.10;;
3503;SDS011;1766;53.490;10.174;2022-08-01T12:12:41;6.32;;;1.17;;
3503;SDS011;1766;53.490;10.174;2022-08-01T12:14:45;3.70;;;1.10;;
3503;SDS011;1766;53.490;10.174;2022-08-01T12:16:57;2.55;;;1.02;;
3503;SDS011;1766;53.490;10.174;2022-08-01T12:18:59;5.45;;;1.30;;
3503;SDS011;1766;53.490;10.174;2022-08-01T12:21:02;5.65;;;1.95;;
3503;SDS011;1766;53.490;10.174;2022-08-01T12:23:05;11.82;;;1.52;;
3503;SDS011;1766;53.490;10.174;2022-08-01T12:25:10;7.72;;;1.33;;
3503;SDS011;1766;53.490;10.174;2022-08-01T12:27:23;3.88;;;1.08;;
3503;SDS011;1766;53.490;10.174;2022-08-01T12:29:34;2.95;;;1.10;;
3503;SDS011;1766;53.490;10.174;2022-08-01T12:31:38;6.72;;;1.50;;
3503;SDS011;1766;53.490;10.174;2022-08-01T12:33:40;3.65;;;1.20;;
3503;SDS011;1766;53.490;10.174;2022-08-01T12:35:41;5.22;;;1.55;;
3503;SDS011;1766;53.490;10.174;2022-08-01T12:37:44;6.78;;;1.27;;
3503;SDS011;1766;53.490;10.174;2022-08-01T12:39:48;6.75;;;1.70;;
3503;SDS011;1766;53.490;10.174;2022-08-01T12:41:51;6.65;;;1.30;;
3503;SDS011;1766;53.490;10.174;2022-08-01T12:43:55;8.05;;;1.73;;